KBKB

Fullerton Landing Strip Airport

Louisiana, USA

KBKB 110854Z AUTO 00000KT 10SM CLR 02/01 A3026 RMK AO2 SLP279 T00220011 56008 $

Observed Flight Rules
Dec-11 @ 08:54 UTC (34 minutes ago) Visual Flight Rules
Wind Visibility Clouds
Calm 10 miles
  • Clear skies
Temperatures Readings
Current 2°C / 36°F
Dewpoint 1°C / 34°F
Humidity 93%
Altimeter 30.26" Hg
Pressure 1027.9 hPa
Elevation 94
Observed Flight Rules
Dec-11 @ 08:54 UTC
(34 minutes ago)
VFR
Wind Visibility
Calm 10 miles
Clouds
  • Clear skies
Temperature Dewpoint
2°C / 36°F 1°C / 34°F
Humidity Altimeter Pressure
93% 30.26" Hg 1027.9 hPa